Time;durP1;ratioP1;P1;durP2;ratioP2;P2;SDS_P1;SDS_P2;PMS_P1;PMS_P2;Temp;Humidity;BMP_temperature;BMP_pressure;BME280_temperature;BME280_humidity;BME280_pressure;Samples;Min_cycle;Max_cycle;Signal;HPM_P1;HPM_P2
2023/04/13 00:00:10;;;;;;;;;;;;;;;17.68;71.06;100034.53;7396792;19;1618;-49
2023/04/13 00:02:38;;;;;;;;;;;;;;;17.67;70.86;100024.00;7396840;19;1291;-49
2023/04/13 00:05:08;;;;;;;;;;;;;;;17.65;70.96;100023.31;7396728;19;1395;-49
2023/04/13 00:07:37;;;;;;;;;;;;;;;17.62;71.24;100016.38;7397338;19;1802;-49
2023/04/13 00:10:05;;;;;;;;;;;;;;;17.59;71.01;100021.22;7395557;19;1850;-49
2023/04/13 00:12:34;;;;;;;;;;;;;;;17.73;70.50;100019.91;7396763;19;1213;-49
2023/04/13 00:15:02;;;;;;;;;;;;;;;17.61;70.48;100032.59;7396737;19;1444;-49
2023/04/13 00:17:33;;;;;;;;;;;;;;;17.67;70.63;100019.47;7397280;19;1263;-49
2023/04/13 00:20:11;;;;;;;;;;;;;;;17.49;70.74;100008.69;7397120;19;1579;-49
2023/04/13 00:22:40;;;;;;;;;;;;;;;17.58;71.10;100027.53;7397678;19;1451;-49
2023/04/13 00:25:09;;;;;;;;;;;;;;;17.68;70.45;100028.34;7396132;19;1500;-49
2023/04/13 00:27:38;;;;;;;;;;;;;;;17.59;70.30;100032.72;7396157;19;1557;-49
2023/04/13 00:30:08;;;;;;;;;;;;;;;17.68;70.47;100020.31;7395480;19;1862;-49
2023/04/13 00:32:41;;;;;;;;;;;;;;;17.62;70.94;100000.34;7396444;19;1250;-49
2023/04/13 00:35:09;;;;;;;;;;;;;;;17.67;70.72;100015.97;7396320;19;1818;-49
2023/04/13 00:37:38;;;;;;;;;;;;;;;17.62;70.56;100027.09;7395852;19;1506;-49
2023/04/13 00:40:08;;;;;;;;;;;;;;;17.58;70.99;100016.84;7395046;19;1599;-49
2023/04/13 00:42:36;;;;;;;;;;;;;;;17.61;70.85;100008.53;7395908;19;1219;-50
2023/04/13 00:45:05;;;;;;;;;;;;;;;17.59;70.87;100015.84;7393749;19;1383;-49
2023/04/13 00:47:34;;;;;;;;;;;;;;;17.62;71.01;100026.25;7395201;19;1467;-50
2023/04/13 00:50:07;;;;;;;;;;;;;;;17.60;70.85;100028.22;7394707;19;1849;-49
2023/04/13 00:52:37;;;;;;;;;;;;;;;17.59;70.75;100024.72;7395462;19;1171;-49
2023/04/13 00:55:06;;;;;;;;;;;;;;;17.52;70.66;100026.25;7397140;19;1031;-49
2023/04/13 00:57:35;;;;;;;;;;;;;;;17.44;70.78;100035.00;7395520;19;1514;-49
2023/04/13 01:00:08;;;;;;;;;;;;;;;17.32;70.86;99998.72;7395516;19;1563;-49
2023/04/13 01:02:40;;;;;;;;;;;;;;;17.50;70.61;100044.28;7395264;19;1588;-49
2023/04/13 01:05:14;;;;;;;;;;;;;;;17.50;70.52;100037.09;7395078;19;1480;-49
2023/04/13 01:07:48;;;;;;;;;;;;;;;17.37;70.44;100008.97;7404898;19;1562;-49
2023/04/13 01:10:20;;;;;;;;;;;;;;;17.50;70.09;100039.78;7408790;19;1851;-49
2023/04/13 01:12:53;;;;;;;;;;;;;;;17.53;70.49;100022.63;7409783;19;1058;-49
2023/04/13 01:15:22;;;;;;;;;;;;;;;17.45;70.08;100033.19;7409501;19;1626;-49
2023/04/13 01:17:52;;;;;;;;;;;;;;;17.47;70.16;100026.72;7408943;19;1260;-49
2023/04/13 01:20:24;;;;;;;;;;;;;;;17.54;70.44;100028.81;7409260;19;1414;-49
2023/04/13 01:22:56;;;;;;;;;;;;;;;17.42;70.37;100050.34;7409929;19;1062;-50
2023/04/13 01:25:29;;;;;;;;;;;;;;;17.50;70.66;100018.38;7409124;19;1157;-49
2023/04/13 01:28:02;;;;;;;;;;;;;;;17.22;70.07;99993.41;7408447;19;1633;-49
2023/04/13 01:30:31;;;;;;;;;;;;;;;17.39;70.64;100015.91;7406508;19;1854;-50
2023/04/13 01:33:02;;;;;;;;;;;;;;;17.42;70.13;100020.09;7407637;19;1965;-49
2023/04/13 01:35:31;;;;;;;;;;;;;;;17.42;70.90;100034.31;7407938;19;1166;-49
2023/04/13 01:37:59;;;;;;;;;;;;;;;17.35;70.58;100030.53;7409494;19;1138;-49
2023/04/13 01:40:28;;;;;;;;;;;;;;;17.44;70.72;100045.69;7407011;19;1864;-49
2023/04/13 01:42:59;;;;;;;;;;;;;;;17.36;70.98;100034.88;7408513;19;1237;-49
2023/04/13 01:45:29;;;;;;;;;;;;;;;17.69;70.05;100048.75;7408024;19;1296;-50
2023/04/13 01:48:08;;;;;;;;;;;;;;;18.51;67.70;100041.84;7407607;19;1236;-49
2023/04/13 01:50:39;;;;;;;;;;;;;;;19.17;66.02;100034.47;7406350;19;1843;-49
2023/04/13 01:53:10;;;;;;;;;;;;;;;19.76;64.49;100038.31;7408036;19;1487;-50
2023/04/13 01:55:40;;;;;;;;;;;;;;;19.71;64.45;100054.03;7407751;19;1174;-49
2023/04/13 01:58:12;;;;;;;;;;;;;;;19.57;65.10;100050.03;7409228;19;1295;-49
2023/04/13 02:00:40;;;;;;;;;;;;;;;19.59;64.96;100044.53;7407711;19;1491;-49
2023/04/13 02:03:09;;;;;;;;;;;;;;;19.64;64.92;100047.59;7407608;19;1546;-49
2023/04/13 02:05:39;;;;;;;;;;;;;;;19.65;64.89;100038.53;7407747;19;1695;-49
2023/04/13 02:08:07;;;;;;;;;;;;;;;19.72;64.68;100052.19;7407634;19;1212;-49
2023/04/13 02:10:38;;;;;;;;;;;;;;;19.72;64.93;100061.09;7405320;19;1882;-49
2023/04/13 02:13:08;;;;;;;;;;;;;;;19.75;64.80;100050.03;7408243;19;1141;-49
2023/04/13 02:15:40;;;;;;;;;;;;;;;19.78;64.72;100064.97;7407532;19;1157;-49
2023/04/13 02:18:09;;;;;;;;;;;;;;;19.81;64.51;100067.34;7403246;19;1519;-50
2023/04/13 02:20:39;;;;;;;;;;;;;;;19.86;64.48;100063.19;7399578;19;1523;-49
2023/04/13 02:23:07;;;;;;;;;;;;;;;19.89;64.32;100059.31;7400046;19;1946;-49
2023/04/13 02:25:36;;;;;;;;;;;;;;;19.90;64.42;100054.81;7401381;19;1110;-49
2023/04/13 02:28:04;;;;;;;;;;;;;;;19.97;64.43;100075.47;7400879;19;1661;-49
2023/04/13 02:30:32;;;;;;;;;;;;;;;19.99;64.18;100053.84;7397666;19;1860;-50
2023/04/13 02:33:04;;;;;;;;;;;;;;;19.97;64.08;100042.44;7400212;19;1467;-49
2023/04/13 02:35:32;;;;;;;;;;;;;;;19.97;64.25;100056.69;7400895;19;1559;-49
2023/04/13 02:38:02;;;;;;;;;;;;;;;20.05;64.29;100063.94;7400604;19;1265;-49
2023/04/13 02:40:31;;;;;;;;;;;;;;;20.09;63.98;100061.78;7398235;19;1554;-50
2023/04/13 02:42:59;;;;;;;;;;;;;;;20.04;64.16;100059.59;7399454;19;1342;-49
2023/04/13 02:45:27;;;;;;;;;;;;;;;20.09;63.98;100043.84;7399921;19;1681;-50
2023/04/13 02:47:56;;;;;;;;;;;;;;;20.18;63.72;100061.69;7399187;19;1419;-49
2023/04/13 02:50:27;;;;;;;;;;;;;;;20.20;63.87;100065.03;7398350;19;1854;-49
2023/04/13 02:52:55;;;;;;;;;;;;;;;20.21;63.68;100053.31;7399683;19;1585;-49
2023/04/13 02:55:24;;;;;;;;;;;;;;;20.23;63.51;100051.31;7399413;19;1308;-49
2023/04/13 02:57:52;;;;;;;;;;;;;;;20.29;63.45;100062.38;7399071;19;1495;-49
2023/04/13 03:00:22;;;;;;;;;;;;;;;20.33;63.46;100061.06;7399080;19;1570;-49
2023/04/13 03:02:51;;;;;;;;;;;;;;;20.30;63.45;100058.72;7399824;19;1835;-49
2023/04/13 03:05:20;;;;;;;;;;;;;;;20.33;63.37;100074.50;7398931;19;1612;-49
2023/04/13 03:07:51;;;;;;;;;;;;;;;20.31;63.49;100069.28;7399542;19;1484;-49
2023/04/13 03:10:19;;;;;;;;;;;;;;;20.35;63.27;100067.13;7396707;19;1855;-49
2023/04/13 03:12:47;;;;;;;;;;;;;;;20.34;63.22;100082.38;7399763;19;1555;-49
2023/04/13 03:15:17;;;;;;;;;;;;;;;20.31;63.59;100087.22;7399186;19;1270;-49
2023/04/13 03:17:45;;;;;;;;;;;;;;;20.39;63.22;100095.31;7396692;19;1562;-49
2023/04/13 03:20:15;;;;;;;;;;;;;;;20.36;63.35;100093.81;7398533;19;1621;-50
2023/04/13 03:22:43;;;;;;;;;;;;;;;20.40;63.25;100080.91;7399127;19;1165;-49
2023/04/13 03:25:14;;;;;;;;;;;;;;;20.35;63.29;100085.91;7398038;19;1201;-49
2023/04/13 03:27:43;;;;;;;;;;;;;;;20.36;63.53;100093.81;7398886;19;1559;-49
2023/04/13 03:30:12;;;;;;;;;;;;;;;20.34;63.58;100106.56;7393754;19;1826;-50
2023/04/13 03:32:40;;;;;;;;;;;;;;;20.33;63.55;100104.84;7398518;19;1347;-49
2023/04/13 03:35:08;;;;;;;;;;;;;;;20.36;63.53;100106.41;7398211;19;1950;-49
2023/04/13 03:37:41;;;;;;;;;;;;;;;20.45;62.98;100118.84;7397447;19;1209;-50
2023/04/13 03:40:11;;;;;;;;;;;;;;;20.22;63.01;100079.16;7396267;19;1602;-49
2023/04/13 03:42:42;;;;;;;;;;;;;;;20.48;63.09;100123.91;7397325;19;1275;-49
2023/04/13 03:45:11;;;;;;;;;;;;;;;20.55;62.81;100122.28;7398013;19;1641;-48
2023/04/13 03:47:40;;;;;;;;;;;;;;;20.47;62.89;100130.28;7396784;19;1400;-49
2023/04/13 03:50:09;;;;;;;;;;;;;;;20.60;62.63;100128.03;7396722;19;1853;-50
2023/04/13 03:52:37;;;;;;;;;;;;;;;20.53;63.02;100129.66;7398026;19;1300;-51
2023/04/13 03:55:06;;;;;;;;;;;;;;;20.59;62.90;100133.53;7398528;19;1130;-50
2023/04/13 03:57:35;;;;;;;;;;;;;;;20.60;62.63;100130.72;7396344;19;1316;-49
2023/04/13 04:00:10;;;;;;;;;;;;;;;20.52;62.89;100125.28;7397912;19;1527;-49
2023/04/13 04:02:38;;;;;;;;;;;;;;;20.04;64.06;100137.44;7396316;19;1839;-49
2023/04/13 04:05:07;;;;;;;;;;;;;;;19.61;65.47;100156.00;7397061;19;1550;-49
2023/04/13 04:07:35;;;;;;;;;;;;;;;19.37;66.34;100137.03;7397374;19;1488;-49
2023/04/13 04:10:03;;;;;;;;;;;;;;;19.30;66.47;100152.03;7395214;19;1849;-50
2023/04/13 04:12:32;;;;;;;;;;;;;;;19.14;66.70;100137.47;7392758;19;1220;-49
2023/04/13 04:15:00;;;;;;;;;;;;;;;19.22;66.41;100139.41;7396510;19;1455;-49
2023/04/13 04:17:31;;;;;;;;;;;;;;;19.10;66.87;100145.94;7396298;19;1240;-49
2023/04/13 04:19:59;;;;;;;;;;;;;;;19.43;65.77;100142.59;7396594;19;1228;-49
2023/04/13 04:22:33;;;;;;;;;;;;;;;20.30;63.29;100145.47;7397833;19;1186;-51
2023/04/13 04:25:01;;;;;;;;;;;;;;;20.13;63.81;100149.88;7397018;19;1633;-49
2023/04/13 04:27:36;;;;;;;;;;;;;;;19.59;66.59;100160.69;7396758;19;1690;-50
2023/04/13 04:30:05;;;;;;;;;;;;;;;19.33;66.54;100149.88;7397299;19;1845;-49
2023/04/13 04:32:36;;;;;;;;;;;;;;;18.99;68.16;100161.25;7397400;19;1248;-49
2023/04/13 04:35:05;;;;;;;;;;;;;;;19.06;67.66;100162.34;7395419;19;1855;-50
2023/04/13 04:37:36;;;;;;;;;;;;;;;19.52;66.87;100166.81;7394529;19;1534;-50
2023/04/13 04:40:06;;;;;;;;;;;;;;;19.62;66.01;100173.78;7394416;19;1546;-49
2023/04/13 04:42:36;;;;;;;;;;;;;;;19.61;65.21;100176.63;7393119;19;1646;-50
2023/04/13 04:45:04;;;;;;;;;;;;;;;19.99;64.55;100171.94;7391842;19;1592;-50
2023/04/13 04:47:36;;;;;;;;;;;;;;;20.30;63.48;100166.94;7391385;19;1177;-49
2023/04/13 04:50:08;;;;;;;;;;;;;;;20.21;63.96;100166.06;7392771;19;1843;-49
2023/04/13 04:52:36;;;;;;;;;;;;;;;20.08;64.37;100175.53;7391488;19;1174;-49
2023/04/13 04:55:05;;;;;;;;;;;;;;;20.07;64.66;100163.94;7387744;19;1368;-56
2023/04/13 04:57:33;;;;;;;;;;;;;;;19.76;65.72;100175.13;7389412;19;1429;-57
2023/04/13 05:00:08;;;;;;;;;;;;;;;19.62;63.56;100181.84;7394231;19;1204;-56
2023/04/13 05:02:37;;;;;;;;;;;;;;;19.70;61.08;100164.16;7391721;19;1485;-57
2023/04/13 05:05:08;;;;;;;;;;;;;;;20.01;61.65;100154.66;7391135;19;1764;-55
2023/04/13 05:07:36;;;;;;;;;;;;;;;20.55;58.93;100165.25;7391240;19;1440;-54
2023/04/13 05:10:05;;;;;;;;;;;;;;;20.78;57.22;100159.34;7390074;19;1838;-54
2023/04/13 05:12:34;;;;;;;;;;;;;;;20.73;52.43;100164.34;7390476;19;1264;-55
2023/04/13 05:15:02;;;;;;;;;;;;;;;20.35;54.82;100161.09;7391354;19;1267;-54
2023/04/13 05:17:30;;;;;;;;;;;;;;;20.09;52.26;100153.06;7394108;19;1241;-55
2023/04/13 05:19:58;;;;;;;;;;;;;;;20.34;54.86;100176.38;7394961;19;1564;-55
2023/04/13 05:22:30;;;;;;;;;;;;;;;20.59;53.92;100185.44;7395229;19;1173;-55
2023/04/13 05:24:58;;;;;;;;;;;;;;;20.34;51.91;100159.44;7392546;19;1574;-57
2023/04/13 05:27:26;;;;;;;;;;;;;;;20.02;51.54;100179.69;7394414;19;1589;-57
2023/04/13 05:29:56;;;;;;;;;;;;;;;19.76;54.34;100164.41;7392478;19;1856;-55
2023/04/13 05:32:24;;;;;;;;;;;;;;;19.53;52.31;100168.50;7392783;19;1635;-54
2023/04/13 05:34:52;;;;;;;;;;;;;;;19.85;52.42;100162.59;7392299;19;1596;-55
2023/04/13 05:37:20;;;;;;;;;;;;;;;19.98;52.78;100164.91;7392351;19;1518;-54
2023/04/13 05:39:52;;;;;;;;;;;;;;;19.62;52.76;100162.22;7391253;19;1282;-55
2023/04/13 05:42:20;;;;;;;;;;;;;;;19.45;52.99;100171.94;7393769;19;1466;-54
2023/04/13 05:44:48;;;;;;;;;;;;;;;19.35;53.83;100166.66;7391897;19;1506;-54
2023/04/13 05:47:17;;;;;;;;;;;;;;;19.13;53.61;100184.03;7393292;19;1239;-58
2023/04/13 05:49:45;;;;;;;;;;;;;;;19.24;54.10;100169.59;7391937;19;1838;-58
2023/04/13 05:52:13;;;;;;;;;;;;;;;19.61;53.52;100185.50;7392708;19;1588;-58
2023/04/13 05:54:42;;;;;;;;;;;;;;;19.88;53.29;100173.03;7398168;19;1260;-56
2023/04/13 05:57:13;;;;;;;;;;;;;;;19.81;53.53;100171.97;7401054;19;1553;-54
2023/04/13 05:59:41;;;;;;;;;;;;;;;19.75;54.20;100170.75;7401466;19;1634;-54
2023/04/13 06:02:09;;;;;;;;;;;;;;;19.62;55.17;100162.22;7403295;19;1496;-54
2023/04/13 06:04:38;;;;;;;;;;;;;;;19.52;55.86;100174.84;7402006;19;1550;-55
2023/04/13 06:07:06;;;;;;;;;;;;;;;19.54;56.22;100192.50;7399924;19;1561;-56
2023/04/13 06:09:34;;;;;;;;;;;;;;;19.87;56.01;100182.06;7399943;19;1557;-55
2023/04/13 06:12:03;;;;;;;;;;;;;;;20.10;55.66;100171.69;7398209;19;1849;-56
2023/04/13 06:14:34;;;;;;;;;;;;;;;19.97;56.22;100192.72;7401021;19;1284;-56
2023/04/13 06:17:02;;;;;;;;;;;;;;;19.78;56.92;100181.19;7399627;19;1786;-58
2023/04/13 06:19:30;;;;;;;;;;;;;;;19.62;57.71;100181.84;7397955;19;1223;-57
2023/04/13 06:21:59;;;;;;;;;;;;;;;19.55;58.17;100193.34;7399467;19;1579;-57
2023/04/13 06:24:28;;;;;;;;;;;;;;;19.47;58.39;100173.47;7397868;19;1140;-57
2023/04/13 06:26:57;;;;;;;;;;;;;;;19.76;57.95;100187.69;7396270;19;1620;-58
2023/04/13 06:29:25;;;;;;;;;;;;;;;20.12;57.48;100191.16;7399343;19;1498;-58
2023/04/13 06:31:56;;;;;;;;;;;;;;;20.10;57.64;100195.00;7395923;19;1860;-58
2023/04/13 06:34:24;;;;;;;;;;;;;;;19.91;58.55;100183.44;7397001;19;1364;-58
2023/04/13 06:36:52;;;;;;;;;;;;;;;19.73;59.27;100194.19;7394701;19;1225;-57
2023/04/13 06:39:21;;;;;;;;;;;;;;;19.62;59.34;100192.56;7394747;19;1207;-58
2023/04/13 06:41:49;;;;;;;;;;;;;;;19.56;60.07;100206.59;7398606;19;1205;-58
2023/04/13 06:44:18;;;;;;;;;;;;;;;19.53;60.14;100206.06;7399249;19;1099;-57
2023/04/13 06:46:46;;;;;;;;;;;;;;;19.92;59.53;100200.41;7396962;19;1358;-57
2023/04/13 06:49:17;;;;;;;;;;;;;;;20.14;58.75;100202.59;7398373;19;1684;-58
2023/04/13 06:51:45;;;;;;;;;;;;;;;20.01;59.23;100191.41;7397339;19;1846;-57
2023/04/13 06:54:14;;;;;;;;;;;;;;;19.90;59.88;100213.97;7398753;19;1633;-58
2023/04/13 06:56:42;;;;;;;;;;;;;;;19.71;60.31;100204.25;7397599;19;1512;-57
2023/04/13 06:59:11;;;;;;;;;;;;;;;19.47;60.72;100178.00;7399003;19;1237;-56
2023/04/13 07:01:40;;;;;;;;;;;;;;;19.59;61.00;100210.81;7398060;19;1257;-57
2023/04/13 07:04:08;;;;;;;;;;;;;;;19.68;60.91;100215.25;7397524;19;1388;-57
2023/04/13 07:06:39;;;;;;;;;;;;;;;20.08;60.04;100197.00;7396463;19;1571;-58
2023/04/13 07:09:07;;;;;;;;;;;;;;;20.25;59.55;100207.72;7395917;19;1258;-53
2023/04/13 07:11:35;;;;;;;;;;;;;;;20.05;60.11;100222.31;7397817;19;1852;-52
2023/04/13 07:14:04;;;;;;;;;;;;;;;19.81;60.26;100198.78;7391991;19;1440;-52
2023/04/13 07:16:32;;;;;;;;;;;;;;;19.66;60.93;100196.63;7395288;19;1442;-52
2023/04/13 07:19:02;;;;;;;;;;;;;;;19.60;61.31;100212.50;7395877;19;1515;-53
2023/04/13 07:21:30;;;;;;;;;;;;;;;19.58;61.54;100209.97;7397703;19;1445;-52
2023/04/13 07:24:01;;;;;;;;;;;;;;;19.96;60.16;100207.16;7397959;19;1365;-52
2023/04/13 07:26:30;;;;;;;;;;;;;;;20.16;60.13;100187.16;7398589;19;1154;-52
2023/04/13 07:28:58;;;;;;;;;;;;;;;20.02;60.69;100185.06;7396780;19;1205;-52
2023/04/13 07:31:27;;;;;;;;;;;;;;;19.81;61.20;100196.94;7396457;19;1860;-52
2023/04/13 07:33:55;;;;;;;;;;;;;;;19.64;61.55;100211.19;7395318;19;1563;-52
2023/04/13 07:36:25;;;;;;;;;;;;;;;19.55;62.27;100202.22;7397408;19;1561;-53
2023/04/13 07:38:53;;;;;;;;;;;;;;;19.49;62.56;100194.78;7397682;19;1189;-52
2023/04/13 07:41:24;;;;;;;;;;;;;;;19.79;61.55;100198.94;7396328;19;1211;-57
2023/04/13 07:43:52;;;;;;;;;;;;;;;20.10;61.03;100192.34;7399436;19;1485;-51
2023/04/13 07:46:25;;;;;;;;;;;;;;;20.03;61.39;100192.97;7398458;19;1601;-52
2023/04/13 07:48:54;;;;;;;;;;;;;;;19.84;61.72;100201.19;7398044;19;1331;-52
2023/04/13 07:51:22;;;;;;;;;;;;;;;19.64;62.48;100203.16;7396468;19;1847;-57
2023/04/13 07:53:54;;;;;;;;;;;;;;;19.50;62.82;100195.63;7395839;19;1516;-52
2023/04/13 07:56:25;;;;;;;;;;;;;;;19.42;63.08;100197.25;7397728;19;1561;-51
2023/04/13 07:58:53;;;;;;;;;;;;;;;19.83;61.98;100194.94;7397920;19;1496;-52
2023/04/13 08:01:21;;;;;;;;;;;;;;;20.06;61.19;100192.63;7398294;19;1577;-53
2023/04/13 08:03:50;;;;;;;;;;;;;;;19.90;62.07;100191.69;7396709;19;1439;-52
2023/04/13 08:06:19;;;;;;;;;;;;;;;19.73;62.18;100193.38;7397086;19;1633;-52
2023/04/13 08:08:48;;;;;;;;;;;;;;;19.57;62.42;100185.97;7397237;19;1550;-52
2023/04/13 08:11:16;;;;;;;;;;;;;;;19.41;63.02;100187.50;7396234;19;1852;-52
2023/04/13 08:13:47;;;;;;;;;;;;;;;19.49;62.71;100192.09;7396773;19;1865;-51
2023/04/13 08:16:16;;;;;;;;;;;;;;;19.92;61.73;100174.41;7395429;19;1494;-51
2023/04/13 08:18:45;;;;;;;;;;;;;;;19.99;61.83;100190.72;7396120;19;1249;-52
2023/04/13 08:21:15;;;;;;;;;;;;;;;19.85;62.40;100190.28;7396574;19;1558;-52
2023/04/13 08:23:44;;;;;;;;;;;;;;;19.67;62.53;100178.69;7396142;19;1339;-52
2023/04/13 08:26:18;;;;;;;;;;;;;;;19.52;63.26;100218.63;6876641;19;10000553;-51
2023/04/13 08:28:51;;;;;;;;;;;;;;;19.41;63.53;100189.34;7391081;19;1130;-51
2023/04/13 08:31:20;;;;;;;;;;;;;;;19.56;63.41;100182.47;7389066;19;1835;-52
2023/04/13 08:33:48;;;;;;;;;;;;;;;20.03;61.98;100190.28;7391326;19;1512;-52
2023/04/13 08:36:17;;;;;;;;;;;;;;;20.00;62.25;100176.31;7395912;19;1824;-51
2023/04/13 08:38:46;;;;;;;;;;;;;;;19.78;62.98;100188.38;7394677;19;1150;-52
2023/04/13 08:41:15;;;;;;;;;;;;;;;19.59;63.43;100176.78;7392339;19;1209;-52
2023/04/13 08:43:45;;;;;;;;;;;;;;;19.44;63.71;100171.13;7395805;19;1300;-52
2023/04/13 08:46:18;;;;;;;;;;;;;;;19.37;64.10;100162.00;7395737;19;1629;-52
2023/04/13 08:48:48;;;;;;;;;;;;;;;19.44;64.03;100176.47;7394853;19;1336;-51
2023/04/13 08:51:16;;;;;;;;;;;;;;;19.89;62.84;100168.50;7394770;19;1861;-52
2023/04/13 08:53:45;;;;;;;;;;;;;;;19.97;62.48;100176.63;7395188;19;1677;-52
2023/04/13 08:56:16;;;;;;;;;;;;;;;19.81;63.24;100194.25;7395253;19;1571;-52
2023/04/13 08:58:45;;;;;;;;;;;;;;;19.55;64.06;100166.50;7394458;19;1232;-52
2023/04/13 09:01:16;;;;;;;;;;;;;;;19.42;64.10;100164.22;7396048;19;1574;-52
2023/04/13 09:03:51;;;;;;;;;;;;;;;19.33;64.44;100168.66;7395616;19;1276;-53
2023/04/13 09:06:25;;;;;;;;;;;;;;;19.47;64.10;100160.06;7395578;19;1447;-51
2023/04/13 09:08:54;;;;;;;;;;;;;;;19.98;62.90;100148.81;7394469;19;1476;-52
2023/04/13 09:11:22;;;;;;;;;;;;;;;19.89;62.92;100152.41;7394615;19;1849;-51
2023/04/13 09:13:52;;;;;;;;;;;;;;;19.62;64.17;100151.50;7396591;19;1222;-51
2023/04/13 09:16:23;;;;;;;;;;;;;;;19.51;64.23;100149.06;7394774;19;1197;-52
2023/04/13 09:18:52;;;;;;;;;;;;;;;19.31;64.66;100154.56;7394061;19;1491;-52
2023/04/13 09:21:21;;;;;;;;;;;;;;;19.31;64.77;100157.25;7393391;19;1166;-52
2023/04/13 09:23:56;;;;;;;;;;;;;;;19.58;64.09;100152.81;7393839;19;1234;-51
2023/04/13 09:26:24;;;;;;;;;;;;;;;19.96;63.06;100148.13;7395098;19;1304;-52
2023/04/13 09:28:53;;;;;;;;;;;;;;;19.84;63.42;100137.63;7399703;19;1635;-52
2023/04/13 09:31:24;;;;;;;;;;;;;;;19.55;64.11;100135.16;7401549;19;1857;-51
2023/04/13 09:33:53;;;;;;;;;;;;;;;19.39;64.77;100151.13;7395898;19;1675;-51
2023/04/13 09:36:22;;;;;;;;;;;;;;;19.30;64.96;100152.88;7401516;19;1926;-52
2023/04/13 09:38:52;;;;;;;;;;;;;;;19.19;64.88;100145.91;7400806;19;1485;-51
2023/04/13 09:41:30;;;;;;;;;;;;;;;19.48;64.39;100151.03;7397582;19;1253;-51
2023/04/13 09:43:59;;;;;;;;;;;;;;;19.99;63.29;100147.78;7401202;19;1202;-51
2023/04/13 09:46:30;;;;;;;;;;;;;;;19.82;63.29;100142.31;7400819;19;1145;-52
2023/04/13 09:49:03;;;;;;;;;;;;;;;19.59;64.23;100158.00;7400262;19;1205;-52
2023/04/13 09:51:38;;;;;;;;;;;;;;;19.42;64.82;100138.25;7401466;19;1846;-52
2023/04/13 09:54:07;;;;;;;;;;;;;;;19.31;65.11;100135.78;7401471;19;1532;-51
2023/04/13 09:56:46;;;;;;;;;;;;;;;19.28;64.93;100157.56;7401666;19;1106;-51
2023/04/13 09:59:15;;;;;;;;;;;;;;;19.59;64.50;100133.03;7402186;19;1220;-52
2023/04/13 10:01:46;;;;;;;;;;;;;;;19.99;63.11;100137.03;7401718;19;1209;-51
2023/04/13 10:04:14;;;;;;;;;;;;;;;19.81;63.71;100124.50;7401987;19;1380;-51
2023/04/13 10:06:43;;;;;;;;;;;;;;;19.56;64.44;100131.50;7401762;19;1487;-51
2023/04/13 10:09:12;;;;;;;;;;;;;;;19.39;64.75;100132.34;7401528;19;1130;-52
2023/04/13 10:11:43;;;;;;;;;;;;;;;19.34;64.96;100122.09;7399784;19;1848;-51
2023/04/13 10:14:15;;;;;;;;;;;;;;;19.25;65.23;100123.00;7401454;19;1479;-51
2023/04/13 10:17:04;;;;;;;;;;;;;;;19.47;64.60;100116.31;7400943;19;1554;-52
2023/04/13 10:19:36;;;;;;;;;;;;;;;19.89;63.46;100094.22;7400702;19;1536;-51
2023/04/13 10:22:05;;;;;;;;;;;;;;;19.77;63.79;100109.72;7402050;19;1138;-53
2023/04/13 10:24:34;;;;;;;;;;;;;;;19.54;64.35;100105.84;7399996;19;1501;-51
2023/04/13 10:27:11;;;;;;;;;;;;;;;19.37;65.00;100100.31;7400387;19;1863;-51
2023/04/13 10:29:40;;;;;;;;;;;;;;;19.26;65.45;100108.63;7401279;19;1309;-51
2023/04/13 10:32:21;;;;;;;;;;;;;;;19.15;65.52;100117.72;7399180;19;1855;-51
2023/04/13 10:34:49;;;;;;;;;;;;;;;19.33;65.30;100090.06;7401220;19;1468;-51
2023/04/13 10:37:18;;;;;;;;;;;;;;;19.88;63.69;100107.81;7400546;19;1589;-51
2023/04/13 10:39:46;;;;;;;;;;;;;;;19.89;63.46;100093.38;7397390;19;1338;-51
2023/04/13 10:42:15;;;;;;;;;;;;;;;19.68;64.18;100100.75;7400240;19;1840;-51
2023/04/13 10:44:44;;;;;;;;;;;;;;;19.48;64.69;100113.50;7400376;19;1580;-51
2023/04/13 10:47:15;;;;;;;;;;;;;;;19.34;65.26;100102.47;7400027;19;1221;-51
2023/04/13 10:49:44;;;;;;;;;;;;;;;19.22;65.26;100105.41;7400409;19;1955;-51
2023/04/13 10:52:13;;;;;;;;;;;;;;;19.21;65.47;100108.22;7398976;19;1850;-50
2023/04/13 10:54:42;;;;;;;;;;;;;;;19.42;64.90;100103.41;7399287;19;1236;-51
2023/04/13 10:57:11;;;;;;;;;;;;;;;19.97;63.69;100114.91;7399413;19;1550;-50
2023/04/13 10:59:43;;;;;;;;;;;;;;;19.77;64.17;100090.09;7399520;19;1237;-51
2023/04/13 11:02:13;;;;;;;;;;;;;;;19.53;64.68;100098.78;7399835;19;1586;-51
2023/04/13 11:04:44;;;;;;;;;;;;;;;19.40;64.88;100091.97;7399565;19;1619;-51
2023/04/13 11:07:15;;;;;;;;;;;;;;;19.32;65.26;100093.72;7398536;19;1388;-51
2023/04/13 11:09:44;;;;;;;;;;;;;;;19.33;65.48;100082.88;7399109;19;1646;-50
2023/04/13 11:12:13;;;;;;;;;;;;;;;19.26;65.65;100098.72;7398250;19;1856;-51
2023/04/13 11:14:42;;;;;;;;;;;;;;;19.66;64.27;100083.97;7399213;19;1318;-51
2023/04/13 11:17:15;;;;;;;;;;;;;;;19.89;63.46;100082.66;7400647;19;1067;-51
2023/04/13 11:19:56;;;;;;;;;;;;;;;19.63;64.38;100091.47;7399629;19;2317;-52
2023/04/13 11:22:26;;;;;;;;;;;;;;;19.42;64.93;100091.84;7399774;19;1816;-51
2023/04/13 11:24:55;;;;;;;;;;;;;;;19.25;65.33;100096.19;7397505;19;1606;-51
2023/04/13 11:27:24;;;;;;;;;;;;;;;19.13;65.80;100081.34;7399100;19;1177;-51
2023/04/13 11:29:58;;;;;;;;;;;;;;;19.28;65.36;100087.88;7398099;19;1292;-51
2023/04/13 11:32:27;;;;;;;;;;;;;;;19.73;64.43;100084.22;7396840;19;1848;-51
2023/04/13 11:35:06;;;;;;;;;;;;;;;19.86;63.78;100079.28;7398265;19;1276;-51
2023/04/13 11:37:36;;;;;;;;;;;;;;;19.67;64.47;100088.31;7397119;19;1461;-51
2023/04/13 11:40:11;;;;;;;;;;;;;;;19.56;64.95;100071.66;7396392;19;1154;-51
2023/04/13 11:42:40;;;;;;;;;;;;;;;19.43;65.21;100082.78;7398092;19;1180;-51
2023/04/13 11:45:10;;;;;;;;;;;;;;;19.26;65.79;100079.13;7397545;19;1602;-51
2023/04/13 11:47:38;;;;;;;;;;;;;;;19.15;65.91;100066.78;7397085;19;1340;-51
2023/04/13 11:50:09;;;;;;;;;;;;;;;19.50;65.09;100066.91;7398054;19;1527;-51
2023/04/13 11:52:38;;;;;;;;;;;;;;;19.89;63.73;100071.91;7394648;19;1856;-52
2023/04/13 11:55:08;;;;;;;;;;;;;;;19.74;64.03;100074.34;7397797;19;1040;-52
2023/04/13 11:57:37;;;;;;;;;;;;;;;19.55;64.55;100068.13;7396104;19;1513;-52
2023/04/13 12:00:12;;;;;;;;;;;;;;;19.53;64.71;100061.25;7397396;19;1560;-52
2023/04/13 12:02:42;;;;;;;;;;;;;;;19.29;65.35;100062.72;7395225;19;1420;-52
2023/04/13 12:05:21;;;;;;;;;;;;;;;19.19;65.46;100057.44;7396602;19;1201;-52
2023/04/13 12:07:49;;;;;;;;;;;;;;;19.41;64.68;100069.53;7397221;19;1550;-51
2023/04/13 12:10:21;;;;;;;;;;;;;;;19.88;63.54;100046.94;7396356;19;1837;-51
2023/04/13 12:12:56;;;;;;;;;;;;;;;20.02;63.51;100037.44;7395517;19;1837;-51
2023/04/13 12:15:26;;;;;;;;;;;;;;;19.69;64.20;100055.97;7392795;19;1472;-55
2023/04/13 12:17:57;;;;;;;;;;;;;;;19.54;64.60;100062.94;7396648;19;1432;-55
2023/04/13 12:20:35;;;;;;;;;;;;;;;19.44;65.07;100046.94;7396755;19;1855;-56
2023/04/13 12:23:03;;;;;;;;;;;;;;;19.43;64.98;100051.44;7394185;19;1291;-57
2023/04/13 12:25:32;;;;;;;;;;;;;;;19.38;65.19;100051.09;7396717;19;1357;-57
2023/04/13 12:28:00;;;;;;;;;;;;;;;19.34;65.87;100055.06;7394722;19;1098;-57
2023/04/13 12:30:29;;;;;;;;;;;;;;;19.51;65.81;100047.97;7395032;19;1240;-56
2023/04/13 12:32:57;;;;;;;;;;;;;;;20.11;64.26;100027.56;7394087;19;1857;-56
2023/04/13 12:35:28;;;;;;;;;;;;;;;20.16;64.13;100026.09;7395955;19;1605;-55
2023/04/13 12:37:57;;;;;;;;;;;;;;;19.88;64.59;100027.31;7395858;19;1614;-57
2023/04/13 12:40:25;;;;;;;;;;;;;;;19.65;65.60;100022.44;7393674;19;1452;-56
2023/04/13 12:42:53;;;;;;;;;;;;;;;19.55;65.48;100017.16;7395175;19;1096;-57
2023/04/13 12:45:22;;;;;;;;;;;;;;;19.44;65.14;100023.66;7395651;19;1775;-56
2023/04/13 12:47:50;;;;;;;;;;;;;;;19.45;66.23;100025.31;7393509;19;1484;-55
2023/04/13 12:50:18;;;;;;;;;;;;;;;19.39;65.77;100027.78;7395722;19;1405;-57
2023/04/13 12:52:49;;;;;;;;;;;;;;;19.40;65.90;100008.88;7394787;19;1845;-56
2023/04/13 12:55:17;;;;;;;;;;;;;;;19.62;65.91;100018.22;7396430;19;1206;-56
2023/04/13 12:57:46;;;;;;;;;;;;;;;20.11;63.64;100001.56;7396459;19;1110;-58
2023/04/13 13:00:16;;;;;;;;;;;;;;;20.07;62.49;100010.94;7397040;19;1966;-58